createdAt,value
2022-11-15T00:04:58.448Z,59.67
2022-11-15T00:10:00.031Z,58.03
2022-11-15T00:15:01.859Z,57.94
2022-11-15T00:20:04.446Z,57.90
2022-11-15T00:25:06.618Z,58.91
2022-11-15T00:30:08.586Z,60.32
2022-11-15T00:35:10.266Z,59.74
2022-11-15T00:40:15.867Z,60.59
2022-11-15T00:45:17.692Z,59.07
2022-11-15T00:50:20.136Z,58.14
2022-11-15T00:55:22.935Z,57.23
2022-11-15T01:00:24.523Z,58.19
2022-11-15T01:05:26.111Z,59.38
2022-11-15T01:10:27.715Z,58.62
2022-11-15T01:15:29.348Z,58.79
2022-11-15T01:20:30.991Z,58.22
2022-11-15T01:25:32.672Z,57.83
2022-11-15T01:30:34.421Z,59.85
2022-11-15T01:35:40.145Z,55.82
2022-11-15T01:40:42.222Z,54.91
2022-11-15T01:45:45.088Z,54.70
2022-11-15T01:50:46.837Z,55.07
2022-11-15T01:55:48.798Z,55.17
2022-11-15T02:00:51.329Z,54.90
2022-11-15T02:05:54.103Z,52.64
2022-11-15T02:10:55.695Z,56.37
2022-11-15T02:16:14.555Z,54.69
2022-11-15T02:21:29.073Z,54.11
2022-11-15T02:27:05.431Z,54.91
2022-11-15T02:32:12.897Z,54.29
2022-11-15T02:37:43.652Z,52.67
2022-11-15T02:43:22.969Z,52.46
2022-11-15T02:48:26.929Z,54.19
2022-11-15T02:53:29.071Z,55.90
2022-11-15T02:58:52.493Z,56.73
2022-11-15T03:04:20.449Z,58.90
2022-11-15T03:09:27.895Z,56.38
2022-11-15T03:14:37.634Z,55.91
2022-11-15T03:19:47.829Z,55.97
2022-11-15T03:24:54.487Z,58.80
2022-11-15T03:30:01.624Z,55.87
2022-11-15T03:35:14.088Z,56.25
2022-11-15T03:40:17.621Z,56.75
2022-11-15T03:45:25.126Z,57.37
2022-11-15T03:50:27.575Z,56.01
2022-11-15T03:55:29.469Z,59.89
2022-11-15T04:00:31.263Z,56.77
2022-11-15T04:05:32.943Z,55.44
2022-11-15T04:10:34.728Z,56.80
2022-11-15T04:15:37.150Z,57.27
2022-11-15T04:20:59.073Z,55.48
2022-11-15T04:26:03.327Z,55.99
2022-11-15T04:31:05.001Z,58.55
2022-11-15T04:36:25.675Z,57.04
2022-11-15T04:41:27.316Z,55.23
2022-11-15T04:46:29.066Z,56.99
2022-11-15T04:51:30.747Z,57.72
2022-11-15T04:56:32.426Z,55.58
2022-11-15T05:01:34.050Z,56.27
2022-11-15T05:06:35.680Z,55.38
2022-11-15T05:11:37.393Z,55.29
2022-11-15T05:16:39.722Z,55.29
2022-11-15T05:21:41.538Z,55.80
2022-11-15T05:26:43.156Z,56.07
2022-11-15T05:31:44.848Z,55.74
2022-11-15T05:36:46.932Z,59.60
2022-11-15T05:41:55.857Z,55.44
2022-11-15T05:46:58.380Z,57.77
2022-11-15T05:52:01.161Z,59.37
2022-11-15T05:57:03.050Z,58.90
2022-11-15T06:02:04.776Z,60.79
2022-11-15T06:07:06.427Z,60.23
2022-11-15T06:12:08.043Z,60.59
2022-11-15T06:17:11.462Z,60.56
2022-11-15T06:22:13.230Z,59.11
2022-11-15T06:27:14.800Z,59.73
2022-11-15T06:32:16.388Z,58.22
2022-11-15T06:37:18.001Z,55.83
2022-11-15T06:42:19.723Z,53.27
2022-11-15T06:47:21.313Z,57.29
2022-11-15T06:52:23.273Z,56.71
2022-11-15T06:57:24.842Z,57.51
2022-11-15T07:02:26.739Z,59.68
2022-11-15T07:07:28.466Z,60.67
2022-11-15T07:12:30.047Z,61.44
2022-11-15T07:17:31.671Z,58.23
2022-11-15T07:22:33.232Z,56.10
2022-11-15T07:27:35.051Z,56.49
2022-11-15T07:32:36.875Z,55.15
2022-11-15T07:37:38.582Z,59.67
2022-11-15T07:42:55.059Z,56.68
2022-11-15T07:47:57.361Z,54.85
2022-11-15T07:53:00.622Z,54.52
2022-11-15T07:58:10.999Z,53.80
2022-11-15T08:03:14.955Z,53.99
2022-11-15T08:08:16.542Z,56.66
2022-11-15T08:13:18.408Z,56.77
2022-11-15T08:18:20.075Z,56.17
2022-11-15T08:23:21.728Z,55.97
2022-11-15T08:28:23.404Z,55.47
2022-11-15T08:33:26.198Z,58.33
2022-11-15T08:38:30.204Z,57.41
2022-11-15T08:43:32.353Z,56.74
2022-11-15T08:48:34.256Z,55.58
2022-11-15T08:53:36.205Z,56.14
2022-11-15T08:58:37.953Z,55.05
2022-11-15T09:03:41.382Z,58.51
2022-11-15T09:08:56.881Z,54.16
2022-11-15T09:13:58.539Z,54.12
2022-11-15T09:19:00.141Z,54.00
2022-11-15T09:24:01.714Z,54.30
2022-11-15T09:29:04.019Z,56.48
2022-11-15T09:34:05.595Z,56.86
2022-11-15T09:39:07.197Z,54.21
2022-11-15T09:44:30.297Z,57.52
2022-11-15T09:49:32.891Z,58.13
2022-11-15T09:54:54.783Z,54.57
2022-11-15T09:59:57.303Z,58.33
2022-11-15T10:05:00.799Z,55.44
2022-11-15T10:10:11.676Z,56.37
2022-11-15T10:15:16.762Z,55.78
2022-11-15T10:20:20.734Z,57.59
2022-11-15T10:25:27.964Z,56.01
2022-11-15T10:30:50.638Z,57.38
2022-11-15T10:36:10.768Z,56.76
2022-11-15T10:41:15.009Z,59.11
2022-11-15T10:46:45.513Z,57.41
2022-11-15T10:51:54.920Z,59.01
2022-11-15T10:56:59.492Z,59.35
2022-11-15T11:06:17.303Z,63.18
2022-11-15T11:11:18.954Z,64.18
2022-11-15T11:17:05.812Z,64.21
2022-11-15T11:22:25.863Z,62.66
2022-11-15T11:27:52.943Z,62.31
2022-11-15T11:33:08.184Z,63.68
2022-11-15T11:38:42.296Z,63.57
2022-11-15T11:43:52.883Z,62.01
2022-11-15T11:49:09.718Z,61.93
2022-11-15T11:54:18.595Z,61.41
2022-11-15T11:59:20.162Z,61.58
2022-11-15T12:04:37.750Z,59.12
2022-11-15T12:09:45.575Z,59.49
2022-11-15T12:15:13.644Z,58.66
2022-11-15T12:20:19.991Z,59.55
2022-11-15T12:25:33.489Z,61.37
2022-11-15T12:30:50.371Z,60.59
2022-11-15T12:36:01.069Z,59.27
2022-11-15T12:41:16.637Z,58.79
2022-11-15T12:46:30.369Z,60.47
2022-11-15T12:51:43.860Z,56.86
2022-11-15T12:56:45.444Z,59.06
2022-11-15T13:01:46.976Z,56.12
2022-11-15T13:06:51.572Z,55.33
2022-11-15T13:11:53.579Z,56.11
2022-11-15T13:17:06.759Z,55.61
2022-11-15T13:22:30.066Z,55.03
2022-11-15T13:27:32.323Z,54.75
2022-11-15T13:32:34.065Z,53.33
2022-11-15T13:37:36.533Z,54.84
2022-11-15T13:42:41.779Z,54.98
2022-11-15T13:47:53.307Z,57.40
2022-11-15T13:52:59.732Z,55.16
2022-11-15T13:58:07.536Z,55.61
2022-11-15T14:03:23.300Z,55.88
2022-11-15T14:08:25.439Z,55.59
2022-11-15T14:13:32.372Z,54.28
2022-11-15T14:18:44.829Z,54.84
2022-11-15T14:23:46.886Z,55.21
2022-11-15T14:28:48.496Z,56.62
2022-11-15T14:33:50.062Z,57.31
2022-11-15T14:38:51.748Z,56.62
2022-11-15T14:43:54.420Z,57.80
2022-11-15T14:48:56.062Z,57.29
2022-11-15T14:53:57.700Z,56.71
2022-11-15T14:58:59.531Z,55.45
2022-11-15T15:04:01.273Z,57.47
2022-11-15T15:09:03.650Z,56.78
2022-11-15T15:14:05.580Z,55.08
2022-11-15T15:19:07.145Z,56.97
2022-11-15T15:24:14.909Z,57.09
2022-11-15T15:29:16.544Z,55.98
2022-11-15T15:34:18.195Z,54.89
2022-11-15T15:39:19.834Z,57.07
2022-11-15T15:44:21.394Z,58.09
2022-11-15T15:49:22.963Z,59.24
2022-11-15T15:54:24.514Z,56.35
2022-11-15T15:59:26.096Z,55.15
2022-11-15T16:04:28.847Z,59.14
2022-11-15T16:10:09.130Z,60.30
2022-11-15T16:15:11.013Z,59.07
2022-11-15T16:20:45.377Z,60.82
2022-11-15T16:25:46.973Z,60.36
2022-11-15T16:30:55.366Z,61.06
2022-11-15T16:35:58.165Z,61.19
2022-11-15T16:41:00.109Z,58.46
2022-11-15T16:46:13.464Z,59.48
2022-11-15T16:51:15.933Z,60.44
2022-11-15T16:56:26.883Z,62.21
2022-11-15T17:01:35.378Z,61.39
2022-11-15T17:06:37.047Z,61.01
2022-11-15T17:11:43.424Z,62.75
2022-11-15T17:16:45.414Z,62.95
2022-11-15T17:21:49.737Z,63.10
2022-11-15T17:26:51.416Z,62.77
2022-11-15T17:31:52.959Z,62.42
2022-11-15T17:37:12.533Z,61.65
2022-11-15T17:43:01.655Z,61.18
2022-11-15T17:54:03.613Z,57.76
2022-11-15T19:07:03.497Z,58.44
2022-11-15T19:12:05.378Z,55.23
2022-11-15T19:17:07.004Z,55.77
2022-11-15T19:22:08.577Z,53.94
2022-11-15T19:27:10.175Z,54.91
2022-11-15T19:32:11.850Z,57.96
2022-11-15T19:37:13.405Z,59.23
2022-11-15T19:42:15.008Z,58.36
2022-11-15T19:47:16.563Z,52.91
2022-11-15T19:52:20.499Z,53.21
2022-11-15T19:57:22.064Z,53.47
2022-11-15T20:02:23.645Z,52.72
2022-11-15T20:07:25.349Z,51.83
2022-11-15T20:12:27.072Z,52.72
2022-11-15T20:17:28.695Z,53.96
2022-11-15T20:22:30.379Z,52.58
2022-11-15T20:27:32.115Z,52.69
2022-11-15T20:32:33.901Z,53.73
2022-11-15T20:37:35.590Z,53.48
2022-11-15T20:42:37.203Z,57.97
2022-11-15T20:47:38.776Z,55.60
2022-11-15T20:52:40.381Z,55.04
2022-11-15T20:57:42.091Z,54.68
2022-11-15T21:02:43.962Z,57.48
2022-11-15T21:07:45.554Z,53.88
2022-11-15T21:12:47.752Z,53.35
2022-11-15T21:17:49.412Z,55.64
2022-11-15T21:22:51.010Z,54.94
2022-11-15T21:27:52.922Z,56.31
2022-11-15T21:32:54.756Z,52.25
2022-11-15T21:37:57.276Z,58.32
2022-11-15T21:42:58.943Z,56.38
2022-11-15T21:48:00.524Z,60.41
2022-11-15T21:53:02.305Z,56.46
2022-11-15T21:58:03.980Z,54.44
2022-11-15T22:03:05.803Z,55.40
2022-11-15T22:08:07.403Z,57.69
2022-11-15T22:13:08.982Z,57.45
2022-11-15T22:18:10.689Z,55.90
2022-11-15T22:23:12.356Z,58.50
2022-11-15T22:28:16.792Z,59.95
2022-11-15T22:33:19.866Z,59.63
2022-11-15T22:38:22.801Z,61.74
2022-11-15T22:43:26.229Z,60.66
2022-11-15T22:48:34.799Z,61.18
2022-11-15T22:53:36.656Z,61.91
2022-11-15T22:58:40.130Z,61.62
2022-11-15T23:03:41.746Z,61.39
2022-11-15T23:08:43.500Z,61.80
2022-11-15T23:13:45.192Z,60.31
2022-11-15T23:18:46.874Z,61.46
2022-11-15T23:23:48.433Z,60.28
2022-11-15T23:28:50.084Z,61.60
2022-11-15T23:33:57.870Z,60.43
2022-11-15T23:38:59.597Z,57.77
2022-11-15T23:44:01.341Z,60.19
2022-11-15T23:49:03.720Z,57.96
2022-11-15T23:54:05.801Z,58.49
2022-11-15T23:59:08.526Z,59.05
